sensor_id;sensor_type;location;lat;lon;timestamp;temperature;humidity
16823;DHT22;8528;49.976;11.858;2023-02-28T00:00:35;-3.80;99.90
16823;DHT22;8528;49.976;11.858;2023-02-28T00:03:03;-3.80;99.90
16823;DHT22;8528;49.976;11.858;2023-02-28T00:05:30;-3.70;99.90
16823;DHT22;8528;49.976;11.858;2023-02-28T00:07:56;-3.80;99.90
16823;DHT22;8528;49.976;11.858;2023-02-28T00:10:29;-3.80;99.90
16823;DHT22;8528;49.976;11.858;2023-02-28T00:13:04;-3.80;99.90
16823;DHT22;8528;49.976;11.858;2023-02-28T00:15:32;-3.80;99.90
16823;DHT22;8528;49.976;11.858;2023-02-28T00:17:59;-3.80;99.90
16823;DHT22;8528;49.976;11.858;2023-02-28T00:20:26;-3.80;99.90
16823;DHT22;8528;49.976;11.858;2023-02-28T00:22:53;-3.80;99.90
16823;DHT22;8528;49.976;11.858;2023-02-28T00:25:23;-3.80;99.90
16823;DHT22;8528;49.976;11.858;2023-02-28T00:27:50;-3.90;99.90
16823;DHT22;8528;49.976;11.858;2023-02-28T00:30:19;-3.80;99.90
16823;DHT22;8528;49.976;11.858;2023-02-28T00:32:47;-3.90;99.90
16823;DHT22;8528;49.976;11.858;2023-02-28T00:35:14;-3.80;99.90
16823;DHT22;8528;49.976;11.858;2023-02-28T00:37:41;-3.90;99.90
16823;DHT22;8528;49.976;11.858;2023-02-28T00:40:08;-3.90;99.90
16823;DHT22;8528;49.976;11.858;2023-02-28T00:42:36;-4.00;99.90
16823;DHT22;8528;49.976;11.858;2023-02-28T00:45:04;-4.00;99.90
16823;DHT22;8528;49.976;11.858;2023-02-28T00:47:32;-4.00;99.90
16823;DHT22;8528;49.976;11.858;2023-02-28T00:49:59;-4.00;99.90
16823;DHT22;8528;49.976;11.858;2023-02-28T00:52:26;-4.00;99.90
16823;DHT22;8528;49.976;11.858;2023-02-28T00:54:53;-4.10;99.90
16823;DHT22;8528;49.976;11.858;2023-02-28T00:57:21;-4.10;99.90
16823;DHT22;8528;49.976;11.858;2023-02-28T00:59:48;-4.10;99.90
16823;DHT22;8528;49.976;11.858;2023-02-28T01:02:15;-4.10;99.90
16823;DHT22;8528;49.976;11.858;2023-02-28T01:04:42;-4.10;99.90
16823;DHT22;8528;49.976;11.858;2023-02-28T01:07:08;-4.10;99.90
16823;DHT22;8528;49.976;11.858;2023-02-28T01:09:35;-4.10;99.90
16823;DHT22;8528;49.976;11.858;2023-02-28T01:12:02;-4.10;99.90
16823;DHT22;8528;49.976;11.858;2023-02-28T01:14:29;-4.10;99.90
16823;DHT22;8528;49.976;11.858;2023-02-28T01:16:56;-4.10;99.90
16823;DHT22;8528;49.976;11.858;2023-02-28T01:19:23;-4.10;99.90
16823;DHT22;8528;49.976;11.858;2023-02-28T01:21:49;-4.20;99.90
16823;DHT22;8528;49.976;11.858;2023-02-28T01:24:16;-4.20;99.90
16823;DHT22;8528;49.976;11.858;2023-02-28T01:26:43;-4.30;99.90
16823;DHT22;8528;49.976;11.858;2023-02-28T01:29:10;-4.30;99.90
16823;DHT22;8528;49.976;11.858;2023-02-28T01:31:37;-4.40;99.90
16823;DHT22;8528;49.976;11.858;2023-02-28T01:34:04;-4.40;99.90
16823;DHT22;8528;49.976;11.858;2023-02-28T01:36:31;-4.50;99.90
16823;DHT22;8528;49.976;11.858;2023-02-28T01:38:57;-4.40;99.90
16823;DHT22;8528;49.976;11.858;2023-02-28T01:41:28;-4.40;99.90
16823;DHT22;8528;49.976;11.858;2023-02-28T01:44:05;-4.40;99.90
16823;DHT22;8528;49.976;11.858;2023-02-28T01:46:35;-4.40;99.90
16823;DHT22;8528;49.976;11.858;2023-02-28T01:49:14;-4.40;99.90
16823;DHT22;8528;49.976;11.858;2023-02-28T01:51:49;-4.30;99.90
16823;DHT22;8528;49.976;11.858;2023-02-28T01:54:24;-4.30;99.90
16823;DHT22;8528;49.976;11.858;2023-02-28T01:57:19;-4.40;99.90
16823;DHT22;8528;49.976;11.858;2023-02-28T01:59:50;-4.30;99.90
16823;DHT22;8528;49.976;11.858;2023-02-28T02:02:21;-4.30;99.90
16823;DHT22;8528;49.976;11.858;2023-02-28T02:05:03;-4.30;99.90
16823;DHT22;8528;49.976;11.858;2023-02-28T02:07:38;-4.40;99.90
16823;DHT22;8528;49.976;11.858;2023-02-28T02:10:48;-4.40;99.90
16823;DHT22;8528;49.976;11.858;2023-02-28T02:18:46;-4.60;99.90
16823;DHT22;8528;49.976;11.858;2023-02-28T02:21:25;-4.50;99.90
16823;DHT22;8528;49.976;11.858;2023-02-28T02:24:01;-4.60;99.90
16823;DHT22;8528;49.976;11.858;2023-02-28T02:32:35;-4.70;99.90
16823;DHT22;8528;49.976;11.858;2023-02-28T02:35:14;-4.60;99.90
16823;DHT22;8528;49.976;11.858;2023-02-28T02:43:35;-4.50;99.90
16823;DHT22;8528;49.976;11.858;2023-02-28T02:46:10;-4.40;99.90
16823;DHT22;8528;49.976;11.858;2023-02-28T02:48:40;-4.40;99.90
16823;DHT22;8528;49.976;11.858;2023-02-28T02:51:16;-4.30;99.90
16823;DHT22;8528;49.976;11.858;2023-02-28T02:53:55;-4.30;99.90
16823;DHT22;8528;49.976;11.858;2023-02-28T02:56:27;-4.20;99.90
16823;DHT22;8528;49.976;11.858;2023-02-28T02:58:59;-4.20;99.90
16823;DHT22;8528;49.976;11.858;2023-02-28T03:01:29;-4.10;99.90
16823;DHT22;8528;49.976;11.858;2023-02-28T03:04:00;-4.10;99.90
16823;DHT22;8528;49.976;11.858;2023-02-28T03:06:28;-4.10;99.90
16823;DHT22;8528;49.976;11.858;2023-02-28T03:08:54;-4.00;99.90
16823;DHT22;8528;49.976;11.858;2023-02-28T03:11:21;-4.00;99.90
16823;DHT22;8528;49.976;11.858;2023-02-28T03:19:42;-3.90;99.90
16823;DHT22;8528;49.976;11.858;2023-02-28T03:25:16;-3.80;99.90
16823;DHT22;8528;49.976;11.858;2023-02-28T03:28:02;-3.80;99.90
16823;DHT22;8528;49.976;11.858;2023-02-28T03:30:54;-3.80;99.90
16823;DHT22;8528;49.976;11.858;2023-02-28T03:33:30;-3.80;99.90
16823;DHT22;8528;49.976;11.858;2023-02-28T03:36:11;-3.80;99.90
16823;DHT22;8528;49.976;11.858;2023-02-28T03:38:44;-3.90;99.90
16823;DHT22;8528;49.976;11.858;2023-02-28T03:41:32;-3.90;99.90
16823;DHT22;8528;49.976;11.858;2023-02-28T03:44:15;-3.90;99.90
16823;DHT22;8528;49.976;11.858;2023-02-28T03:47:09;-3.90;99.90
16823;DHT22;8528;49.976;11.858;2023-02-28T03:50:19;-3.90;99.90
16823;DHT22;8528;49.976;11.858;2023-02-28T03:52:55;-3.90;99.90
16823;DHT22;8528;49.976;11.858;2023-02-28T03:55:36;-4.00;99.90
16823;DHT22;8528;49.976;11.858;2023-02-28T03:58:15;-4.00;99.90
16823;DHT22;8528;49.976;11.858;2023-02-28T04:00:50;-4.10;99.90
16823;DHT22;8528;49.976;11.858;2023-02-28T04:03:19;-4.10;99.90
16823;DHT22;8528;49.976;11.858;2023-02-28T04:05:53;-4.10;99.90
16823;DHT22;8528;49.976;11.858;2023-02-28T04:08:22;-4.10;99.90
16823;DHT22;8528;49.976;11.858;2023-02-28T04:11:04;-4.10;99.90
16823;DHT22;8528;49.976;11.858;2023-02-28T04:13:33;-4.10;99.90
16823;DHT22;8528;49.976;11.858;2023-02-28T04:16:00;-4.10;99.90
16823;DHT22;8528;49.976;11.858;2023-02-28T04:18:27;-4.10;99.90
16823;DHT22;8528;49.976;11.858;2023-02-28T04:20:53;-4.10;99.90
16823;DHT22;8528;49.976;11.858;2023-02-28T04:23:20;-4.10;99.90
16823;DHT22;8528;49.976;11.858;2023-02-28T04:25:47;-4.10;99.90
16823;DHT22;8528;49.976;11.858;2023-02-28T04:28:14;-4.00;99.90
16823;DHT22;8528;49.976;11.858;2023-02-28T04:30:40;-4.00;99.90
16823;DHT22;8528;49.976;11.858;2023-02-28T04:33:07;-4.00;99.90
16823;DHT22;8528;49.976;11.858;2023-02-28T04:35:34;-3.90;99.90
16823;DHT22;8528;49.976;11.858;2023-02-28T04:38:01;-3.90;99.90
16823;DHT22;8528;49.976;11.858;2023-02-28T04:40:28;-3.90;99.90
16823;DHT22;8528;49.976;11.858;2023-02-28T04:42:55;-3.80;99.90
16823;DHT22;8528;49.976;11.858;2023-02-28T04:45:21;-3.90;99.90
16823;DHT22;8528;49.976;11.858;2023-02-28T04:47:48;-3.80;99.90
16823;DHT22;8528;49.976;11.858;2023-02-28T04:50:15;-3.80;99.90
16823;DHT22;8528;49.976;11.858;2023-02-28T04:52:42;-3.80;99.90
16823;DHT22;8528;49.976;11.858;2023-02-28T04:55:09;-3.70;99.90
16823;DHT22;8528;49.976;11.858;2023-02-28T04:57:36;-3.70;99.90
16823;DHT22;8528;49.976;11.858;2023-02-28T05:00:04;-3.70;99.90
16823;DHT22;8528;49.976;11.858;2023-02-28T05:02:34;-3.80;99.90
16823;DHT22;8528;49.976;11.858;2023-02-28T05:05:02;-3.80;99.90
16823;DHT22;8528;49.976;11.858;2023-02-28T05:07:28;-3.80;99.90
16823;DHT22;8528;49.976;11.858;2023-02-28T05:09:55;-3.80;99.90
16823;DHT22;8528;49.976;11.858;2023-02-28T05:12:22;-3.70;99.90
16823;DHT22;8528;49.976;11.858;2023-02-28T05:14:49;-3.70;99.90
16823;DHT22;8528;49.976;11.858;2023-02-28T05:17:16;-3.80;99.90
16823;DHT22;8528;49.976;11.858;2023-02-28T05:19:43;-3.70;99.90
16823;DHT22;8528;49.976;11.858;2023-02-28T05:22:14;-3.70;99.90
16823;DHT22;8528;49.976;11.858;2023-02-28T05:24:43;-3.70;99.90
16823;DHT22;8528;49.976;11.858;2023-02-28T05:27:10;-3.70;99.90
16823;DHT22;8528;49.976;11.858;2023-02-28T05:29:36;-3.70;99.90
16823;DHT22;8528;49.976;11.858;2023-02-28T05:32:12;-3.80;99.90
16823;DHT22;8528;49.976;11.858;2023-02-28T05:34:39;-3.70;99.90
16823;DHT22;8528;49.976;11.858;2023-02-28T05:37:10;-3.70;99.90
16823;DHT22;8528;49.976;11.858;2023-02-28T05:39:38;-3.80;99.90
16823;DHT22;8528;49.976;11.858;2023-02-28T05:42:05;-3.70;99.90
16823;DHT22;8528;49.976;11.858;2023-02-28T05:44:33;-3.70;99.90
16823;DHT22;8528;49.976;11.858;2023-02-28T05:47:00;-3.70;99.90
16823;DHT22;8528;49.976;11.858;2023-02-28T05:49:27;-3.70;99.90
16823;DHT22;8528;49.976;11.858;2023-02-28T05:51:54;-3.70;99.90
16823;DHT22;8528;49.976;11.858;2023-02-28T05:54:21;-3.70;99.90
16823;DHT22;8528;49.976;11.858;2023-02-28T05:56:47;-3.70;99.90
16823;DHT22;8528;49.976;11.858;2023-02-28T05:59:14;-3.70;99.90
16823;DHT22;8528;49.976;11.858;2023-02-28T06:01:43;-3.70;99.90
16823;DHT22;8528;49.976;11.858;2023-02-28T06:04:18;-3.80;99.90
16823;DHT22;8528;49.976;11.858;2023-02-28T06:06:57;-3.80;99.90
16823;DHT22;8528;49.976;11.858;2023-02-28T06:09:23;-3.90;99.90
16823;DHT22;8528;49.976;11.858;2023-02-28T06:11:51;-3.90;99.90
16823;DHT22;8528;49.976;11.858;2023-02-28T06:14:19;-3.90;99.90
16823;DHT22;8528;49.976;11.858;2023-02-28T06:16:47;-3.80;99.90
16823;DHT22;8528;49.976;11.858;2023-02-28T06:19:14;-3.80;99.90
16823;DHT22;8528;49.976;11.858;2023-02-28T06:21:42;-3.80;99.90
16823;DHT22;8528;49.976;11.858;2023-02-28T06:24:09;-3.70;99.90
16823;DHT22;8528;49.976;11.858;2023-02-28T06:26:36;-3.60;99.90
16823;DHT22;8528;49.976;11.858;2023-02-28T06:29:03;-3.50;99.90
16823;DHT22;8528;49.976;11.858;2023-02-28T06:31:30;-3.50;99.90
16823;DHT22;8528;49.976;11.858;2023-02-28T06:33:57;-3.40;99.90
16823;DHT22;8528;49.976;11.858;2023-02-28T06:36:24;-3.30;99.90
16823;DHT22;8528;49.976;11.858;2023-02-28T06:38:51;-3.20;99.90
16823;DHT22;8528;49.976;11.858;2023-02-28T06:41:25;-3.20;99.90
16823;DHT22;8528;49.976;11.858;2023-02-28T06:43:53;-3.10;99.90
16823;DHT22;8528;49.976;11.858;2023-02-28T06:46:20;-3.00;99.90
16823;DHT22;8528;49.976;11.858;2023-02-28T06:48:47;-3.00;99.90
16823;DHT22;8528;49.976;11.858;2023-02-28T06:51:19;-3.00;99.90
16823;DHT22;8528;49.976;11.858;2023-02-28T06:53:49;-2.90;99.90
16823;DHT22;8528;49.976;11.858;2023-02-28T06:56:18;-2.90;99.90
16823;DHT22;8528;49.976;11.858;2023-02-28T06:58:48;-2.90;99.90
16823;DHT22;8528;49.976;11.858;2023-02-28T07:01:15;-2.80;99.90
16823;DHT22;8528;49.976;11.858;2023-02-28T07:03:42;-2.80;99.90
16823;DHT22;8528;49.976;11.858;2023-02-28T07:06:09;-2.70;99.90
16823;DHT22;8528;49.976;11.858;2023-02-28T07:08:36;-2.70;99.90
16823;DHT22;8528;49.976;11.858;2023-02-28T07:11:04;-2.60;99.90
16823;DHT22;8528;49.976;11.858;2023-02-28T07:13:31;-2.60;99.90
16823;DHT22;8528;49.976;11.858;2023-02-28T07:16:00;-2.50;99.90
16823;DHT22;8528;49.976;11.858;2023-02-28T07:18:28;-2.50;99.90
16823;DHT22;8528;49.976;11.858;2023-02-28T07:20:55;-2.50;99.90
16823;DHT22;8528;49.976;11.858;2023-02-28T07:23:22;-2.50;99.90
16823;DHT22;8528;49.976;11.858;2023-02-28T07:25:50;-2.40;99.90
16823;DHT22;8528;49.976;11.858;2023-02-28T07:28:17;-2.30;99.90
16823;DHT22;8528;49.976;11.858;2023-02-28T07:30:44;-2.30;99.90
16823;DHT22;8528;49.976;11.858;2023-02-28T07:33:24;-2.30;99.90
16823;DHT22;8528;49.976;11.858;2023-02-28T07:36:11;-2.20;99.90
16823;DHT22;8528;49.976;11.858;2023-02-28T07:38:43;-2.10;99.90
16823;DHT22;8528;49.976;11.858;2023-02-28T07:41:18;-2.20;99.90
16823;DHT22;8528;49.976;11.858;2023-02-28T07:43:45;-2.10;99.90
16823;DHT22;8528;49.976;11.858;2023-02-28T07:46:15;-2.00;99.90
16823;DHT22;8528;49.976;11.858;2023-02-28T07:48:42;-1.90;99.90
16823;DHT22;8528;49.976;11.858;2023-02-28T07:51:09;-1.80;99.90
16823;DHT22;8528;49.976;11.858;2023-02-28T07:53:36;-1.70;99.90
16823;DHT22;8528;49.976;11.858;2023-02-28T07:56:03;-1.60;99.90
16823;DHT22;8528;49.976;11.858;2023-02-28T07:58:30;-1.50;99.90
16823;DHT22;8528;49.976;11.858;2023-02-28T08:01:07;-1.50;99.90
16823;DHT22;8528;49.976;11.858;2023-02-28T08:03:35;-1.40;99.90
16823;DHT22;8528;49.976;11.858;2023-02-28T08:06:04;-1.20;99.90
16823;DHT22;8528;49.976;11.858;2023-02-28T08:08:31;-1.10;99.90
16823;DHT22;8528;49.976;11.858;2023-02-28T08:11:02;-1.20;99.90
16823;DHT22;8528;49.976;11.858;2023-02-28T08:13:50;-1.10;99.90
16823;DHT22;8528;49.976;11.858;2023-02-28T08:16:17;-0.40;99.90
16823;DHT22;8528;49.976;11.858;2023-02-28T08:18:50;0.70;99.90
16823;DHT22;8528;49.976;11.858;2023-02-28T08:21:18;1.20;99.90
16823;DHT22;8528;49.976;11.858;2023-02-28T08:23:49;2.20;99.90
16823;DHT22;8528;49.976;11.858;2023-02-28T08:26:17;3.10;99.90
16823;DHT22;8528;49.976;11.858;2023-02-28T08:28:44;3.60;99.90
16823;DHT22;8528;49.976;11.858;2023-02-28T08:31:14;3.60;99.90
16823;DHT22;8528;49.976;11.858;2023-02-28T08:33:42;3.90;99.90
16823;DHT22;8528;49.976;11.858;2023-02-28T08:36:09;3.70;98.40
16823;DHT22;8528;49.976;11.858;2023-02-28T08:38:37;2.70;99.90
16823;DHT22;8528;49.976;11.858;2023-02-28T08:41:06;2.60;99.90
16823;DHT22;8528;49.976;11.858;2023-02-28T08:43:34;2.30;99.90
16823;DHT22;8528;49.976;11.858;2023-02-28T08:46:02;1.70;99.90
16823;DHT22;8528;49.976;11.858;2023-02-28T08:48:31;1.30;99.90
16823;DHT22;8528;49.976;11.858;2023-02-28T08:51:07;1.30;99.90
16823;DHT22;8528;49.976;11.858;2023-02-28T08:53:37;1.50;99.90
16823;DHT22;8528;49.976;11.858;2023-02-28T08:56:09;1.30;99.90
16823;DHT22;8528;49.976;11.858;2023-02-28T08:58:37;1.10;99.90
16823;DHT22;8528;49.976;11.858;2023-02-28T09:01:09;0.80;99.90
16823;DHT22;8528;49.976;11.858;2023-02-28T09:03:36;0.80;99.90
16823;DHT22;8528;49.976;11.858;2023-02-28T09:06:03;0.50;99.90
16823;DHT22;8528;49.976;11.858;2023-02-28T09:08:31;0.60;99.90
16823;DHT22;8528;49.976;11.858;2023-02-28T09:10:58;0.40;99.90
16823;DHT22;8528;49.976;11.858;2023-02-28T09:13:28;0.50;99.90
16823;DHT22;8528;49.976;11.858;2023-02-28T09:15:58;0.70;99.90
16823;DHT22;8528;49.976;11.858;2023-02-28T09:18:25;0.90;99.90
16823;DHT22;8528;49.976;11.858;2023-02-28T09:20:53;0.70;99.90
16823;DHT22;8528;49.976;11.858;2023-02-28T09:23:20;0.50;99.90
16823;DHT22;8528;49.976;11.858;2023-02-28T09:25:48;0.40;99.90
16823;DHT22;8528;49.976;11.858;2023-02-28T09:28:16;0.90;99.90
16823;DHT22;8528;49.976;11.858;2023-02-28T09:30:48;1.50;99.90
16823;DHT22;8528;49.976;11.858;2023-02-28T09:33:16;2.30;99.90
16823;DHT22;8528;49.976;11.858;2023-02-28T09:35:44;2.20;99.90
16823;DHT22;8528;49.976;11.858;2023-02-28T09:38:10;1.70;99.90
16823;DHT22;8528;49.976;11.858;2023-02-28T09:40:44;1.70;99.90
16823;DHT22;8528;49.976;11.858;2023-02-28T09:43:14;2.40;99.90
16823;DHT22;8528;49.976;11.858;2023-02-28T09:45:44;2.40;99.90
16823;DHT22;8528;49.976;11.858;2023-02-28T09:48:18;2.60;99.90
16823;DHT22;8528;49.976;11.858;2023-02-28T09:50:51;3.70;99.60
16823;DHT22;8528;49.976;11.858;2023-02-28T09:53:22;4.60;96.60
16823;DHT22;8528;49.976;11.858;2023-02-28T09:56:15;4.60;94.20
16823;DHT22;8528;49.976;11.858;2023-02-28T09:58:49;3.50;95.70
16823;DHT22;8528;49.976;11.858;2023-02-28T10:01:25;3.20;96.20
16823;DHT22;8528;49.976;11.858;2023-02-28T10:06:49;4.30;93.90
16823;DHT22;8528;49.976;11.858;2023-02-28T10:09:29;4.20;92.90
16823;DHT22;8528;49.976;11.858;2023-02-28T10:12:02;4.10;92.10
16823;DHT22;8528;49.976;11.858;2023-02-28T10:14:32;3.00;93.30
16823;DHT22;8528;49.976;11.858;2023-02-28T10:17:13;2.10;95.40
16823;DHT22;8528;49.976;11.858;2023-02-28T10:22:22;1.90;95.60
16823;DHT22;8528;49.976;11.858;2023-02-28T10:24:54;1.90;97.10
16823;DHT22;8528;49.976;11.858;2023-02-28T10:27:24;2.20;96.30
16823;DHT22;8528;49.976;11.858;2023-02-28T10:29:56;2.20;96.40
16823;DHT22;8528;49.976;11.858;2023-02-28T10:32:26;2.10;95.70
16823;DHT22;8528;49.976;11.858;2023-02-28T10:35:01;2.10;95.50
16823;DHT22;8528;49.976;11.858;2023-02-28T10:37:33;2.10;95.90
16823;DHT22;8528;49.976;11.858;2023-02-28T10:40:05;1.90;95.90
16823;DHT22;8528;49.976;11.858;2023-02-28T10:42:33;1.40;95.90
16823;DHT22;8528;49.976;11.858;2023-02-28T10:45:11;1.40;96.50
16823;DHT22;8528;49.976;11.858;2023-02-28T10:52:54;1.90;96.50
16823;DHT22;8528;49.976;11.858;2023-02-28T10:55:23;1.80;96.20
16823;DHT22;8528;49.976;11.858;2023-02-28T10:57:52;1.80;96.20
16823;DHT22;8528;49.976;11.858;2023-02-28T11:00:22;2.50;95.30
16823;DHT22;8528;49.976;11.858;2023-02-28T11:02:51;3.70;93.10
16823;DHT22;8528;49.976;11.858;2023-02-28T11:08:02;5.60;85.40
16823;DHT22;8528;49.976;11.858;2023-02-28T11:10:32;5.00;86.70
16823;DHT22;8528;49.976;11.858;2023-02-28T11:13:01;5.00;86.70
16823;DHT22;8528;49.976;11.858;2023-02-28T11:15:33;4.80;86.90
16823;DHT22;8528;49.976;11.858;2023-02-28T11:18:20;5.00;86.80
16823;DHT22;8528;49.976;11.858;2023-02-28T11:20:50;4.90;85.80
16823;DHT22;8528;49.976;11.858;2023-02-28T11:23:19;5.20;85.60
16823;DHT22;8528;49.976;11.858;2023-02-28T11:25:56;7.40;83.70
16823;DHT22;8528;49.976;11.858;2023-02-28T11:28:26;9.20;73.10
16823;DHT22;8528;49.976;11.858;2023-02-28T11:31:17;10.40;64.30
16823;DHT22;8528;49.976;11.858;2023-02-28T11:36:23;11.30;56.10
16823;DHT22;8528;49.976;11.858;2023-02-28T11:39:07;11.50;53.50
16823;DHT22;8528;49.976;11.858;2023-02-28T11:44:40;11.30;53.70
16823;DHT22;8528;49.976;11.858;2023-02-28T11:47:47;12.30;50.50
16823;DHT22;8528;49.976;11.858;2023-02-28T11:53:19;10.60;53.80
16823;DHT22;8528;49.976;11.858;2023-02-28T11:55:49;11.10;53.80
16823;DHT22;8528;49.976;11.858;2023-02-28T12:09:28;12.30;47.90
16823;DHT22;8528;49.976;11.858;2023-02-28T12:12:10;12.00;49.00
16823;DHT22;8528;49.976;11.858;2023-02-28T12:28:32;12.50;47.10
16823;DHT22;8528;49.976;11.858;2023-02-28T12:31:10;12.50;47.20
16823;DHT22;8528;49.976;11.858;2023-02-28T12:33:43;12.90;46.40
16823;DHT22;8528;49.976;11.858;2023-02-28T12:36:14;12.30;47.00
16823;DHT22;8528;49.976;11.858;2023-02-28T12:38:48;13.10;46.70
16823;DHT22;8528;49.976;11.858;2023-02-28T12:41:42;13.10;47.20
16823;DHT22;8528;49.976;11.858;2023-02-28T12:44:32;13.70;45.60
16823;DHT22;8528;49.976;11.858;2023-02-28T12:47:03;13.80;43.90
16823;DHT22;8528;49.976;11.858;2023-02-28T12:49:37;13.30;43.90
16823;DHT22;8528;49.976;11.858;2023-02-28T12:52:05;13.60;44.80
16823;DHT22;8528;49.976;11.858;2023-02-28T12:55:06;12.00;46.20
16823;DHT22;8528;49.976;11.858;2023-02-28T12:57:41;12.20;47.70
16823;DHT22;8528;49.976;11.858;2023-02-28T13:00:15;13.30;45.80
16823;DHT22;8528;49.976;11.858;2023-02-28T13:02:48;13.40;44.40
16823;DHT22;8528;49.976;11.858;2023-02-28T13:05:59;12.50;45.30
16823;DHT22;8528;49.976;11.858;2023-02-28T13:08:57;12.10;47.00
16823;DHT22;8528;49.976;11.858;2023-02-28T13:11:30;11.80;47.70
16823;DHT22;8528;49.976;11.858;2023-02-28T13:13:59;12.10;48.10
16823;DHT22;8528;49.976;11.858;2023-02-28T13:16:27;12.40;47.30
16823;DHT22;8528;49.976;11.858;2023-02-28T13:19:08;13.20;46.30
16823;DHT22;8528;49.976;11.858;2023-02-28T13:21:43;14.00;44.20
16823;DHT22;8528;49.976;11.858;2023-02-28T13:24:11;13.00;45.40
16823;DHT22;8528;49.976;11.858;2023-02-28T13:27:12;13.00;45.90
16823;DHT22;8528;49.976;11.858;2023-02-28T13:29:52;13.10;45.60
16823;DHT22;8528;49.976;11.858;2023-02-28T13:39:52;12.30;46.30
16823;DHT22;8528;49.976;11.858;2023-02-28T13:42:35;12.10;47.60
16823;DHT22;8528;49.976;11.858;2023-02-28T13:55:58;10.00;51.40
16823;DHT22;8528;49.976;11.858;2023-02-28T14:06:52;10.00;52.60
16823;DHT22;8528;49.976;11.858;2023-02-28T14:09:25;11.30;50.10
16823;DHT22;8528;49.976;11.858;2023-02-28T14:11:52;10.30;49.70
16823;DHT22;8528;49.976;11.858;2023-02-28T14:17:03;8.60;52.80
16823;DHT22;8528;49.976;11.858;2023-02-28T14:19:32;8.20;54.70
16823;DHT22;8528;49.976;11.858;2023-02-28T14:22:16;8.00;56.00
16823;DHT22;8528;49.976;11.858;2023-02-28T14:25:22;7.90;56.50
16823;DHT22;8528;49.976;11.858;2023-02-28T14:30:52;6.40;59.10
16823;DHT22;8528;49.976;11.858;2023-02-28T14:38:47;4.30;66.70
16823;DHT22;8528;49.976;11.858;2023-02-28T14:41:38;3.60;70.10
16823;DHT22;8528;49.976;11.858;2023-02-28T14:44:21;3.30;72.20
16823;DHT22;8528;49.976;11.858;2023-02-28T14:46:50;3.20;72.80
16823;DHT22;8528;49.976;11.858;2023-02-28T14:49:29;2.90;73.80
16823;DHT22;8528;49.976;11.858;2023-02-28T14:52:26;2.80;75.10
16823;DHT22;8528;49.976;11.858;2023-02-28T14:54:59;2.60;76.20
16823;DHT22;8528;49.976;11.858;2023-02-28T14:57:34;2.60;77.00
16823;DHT22;8528;49.976;11.858;2023-02-28T15:00:16;2.50;79.10
16823;DHT22;8528;49.976;11.858;2023-02-28T15:02:43;2.50;78.40
16823;DHT22;8528;49.976;11.858;2023-02-28T15:07:37;2.50;80.30
16823;DHT22;8528;49.976;11.858;2023-02-28T15:12:40;2.50;81.00
16823;DHT22;8528;49.976;11.858;2023-02-28T15:15:15;2.30;81.00
16823;DHT22;8528;49.976;11.858;2023-02-28T15:17:51;2.30;81.80
16823;DHT22;8528;49.976;11.858;2023-02-28T15:20:19;2.20;82.50
16823;DHT22;8528;49.976;11.858;2023-02-28T15:22:49;2.10;83.40
16823;DHT22;8528;49.976;11.858;2023-02-28T15:25:20;2.10;83.50
16823;DHT22;8528;49.976;11.858;2023-02-28T15:27:53;2.00;83.90
16823;DHT22;8528;49.976;11.858;2023-02-28T15:30:26;1.90;85.10
16823;DHT22;8528;49.976;11.858;2023-02-28T15:35:39;1.80;87.40
16823;DHT22;8528;49.976;11.858;2023-02-28T15:38:25;1.80;87.80
16823;DHT22;8528;49.976;11.858;2023-02-28T15:40:57;1.80;87.80
16823;DHT22;8528;49.976;11.858;2023-02-28T15:43:32;1.80;89.40
16823;DHT22;8528;49.976;11.858;2023-02-28T15:48:32;1.70;90.10
16823;DHT22;8528;49.976;11.858;2023-02-28T15:53:44;1.60;90.50
16823;DHT22;8528;49.976;11.858;2023-02-28T15:56:26;1.60;90.80
16823;DHT22;8528;49.976;11.858;2023-02-28T15:58:56;1.50;91.20
16823;DHT22;8528;49.976;11.858;2023-02-28T16:01:34;1.40;91.20
16823;DHT22;8528;49.976;11.858;2023-02-28T16:04:11;1.40;91.40
16823;DHT22;8528;49.976;11.858;2023-02-28T16:06:39;1.30;91.30
16823;DHT22;8528;49.976;11.858;2023-02-28T16:09:11;1.20;91.50
16823;DHT22;8528;49.976;11.858;2023-02-28T16:11:49;1.20;91.70
16823;DHT22;8528;49.976;11.858;2023-02-28T16:14:27;1.20;92.10
16823;DHT22;8528;49.976;11.858;2023-02-28T16:16:56;1.10;92.50
16823;DHT22;8528;49.976;11.858;2023-02-28T16:19:23;1.10;92.90
16823;DHT22;8528;49.976;11.858;2023-02-28T16:21:50;1.00;93.20
16823;DHT22;8528;49.976;11.858;2023-02-28T16:24:18;0.90;93.50
16823;DHT22;8528;49.976;11.858;2023-02-28T16:26:49;0.90;94.00
16823;DHT22;8528;49.976;11.858;2023-02-28T16:29:29;0.80;94.60
16823;DHT22;8528;49.976;11.858;2023-02-28T16:31:58;0.70;94.90
16823;DHT22;8528;49.976;11.858;2023-02-28T16:34:25;0.70;95.50
16823;DHT22;8528;49.976;11.858;2023-02-28T16:36:52;0.60;95.70
16823;DHT22;8528;49.976;11.858;2023-02-28T16:39:19;0.50;96.10
16823;DHT22;8528;49.976;11.858;2023-02-28T16:41:50;0.40;96.50
16823;DHT22;8528;49.976;11.858;2023-02-28T16:46:53;0.30;97.60
16823;DHT22;8528;49.976;11.858;2023-02-28T16:49:19;0.20;98.10
16823;DHT22;8528;49.976;11.858;2023-02-28T16:51:47;0.10;98.50
16823;DHT22;8528;49.976;11.858;2023-02-28T16:54:14;0.00;99.40
16823;DHT22;8528;49.976;11.858;2023-02-28T16:56:44;-0.10;99.90
16823;DHT22;8528;49.976;11.858;2023-02-28T16:59:13;-0.10;99.90
16823;DHT22;8528;49.976;11.858;2023-02-28T17:01:41;-0.20;99.90
16823;DHT22;8528;49.976;11.858;2023-02-28T17:04:10;-0.30;99.90
16823;DHT22;8528;49.976;11.858;2023-02-28T17:06:37;-0.50;99.90
16823;DHT22;8528;49.976;11.858;2023-02-28T17:09:04;-0.50;99.90
16823;DHT22;8528;49.976;11.858;2023-02-28T17:11:31;-0.60;99.90
16823;DHT22;8528;49.976;11.858;2023-02-28T17:13:59;-0.60;99.90
16823;DHT22;8528;49.976;11.858;2023-02-28T17:16:29;-0.70;99.90
16823;DHT22;8528;49.976;11.858;2023-02-28T17:18:59;-0.80;99.90
16823;DHT22;8528;49.976;11.858;2023-02-28T17:21:29;-0.80;99.90
16823;DHT22;8528;49.976;11.858;2023-02-28T17:23:56;-0.80;99.90
16823;DHT22;8528;49.976;11.858;2023-02-28T17:26:23;-0.80;99.90
16823;DHT22;8528;49.976;11.858;2023-02-28T17:28:52;-0.80;99.90
16823;DHT22;8528;49.976;11.858;2023-02-28T17:31:21;-0.80;99.90
16823;DHT22;8528;49.976;11.858;2023-02-28T17:33:47;-0.80;99.90
16823;DHT22;8528;49.976;11.858;2023-02-28T17:36:17;-0.90;99.90
16823;DHT22;8528;49.976;11.858;2023-02-28T17:38:48;-0.90;99.90
16823;DHT22;8528;49.976;11.858;2023-02-28T17:41:16;-0.90;99.90
16823;DHT22;8528;49.976;11.858;2023-02-28T17:43:42;-1.00;99.90
16823;DHT22;8528;49.976;11.858;2023-02-28T17:46:15;-1.00;99.90
16823;DHT22;8528;49.976;11.858;2023-02-28T17:48:43;-1.00;99.90
16823;DHT22;8528;49.976;11.858;2023-02-28T17:51:12;-1.00;99.90
16823;DHT22;8528;49.976;11.858;2023-02-28T17:53:40;-1.00;99.90
16823;DHT22;8528;49.976;11.858;2023-02-28T17:56:21;-0.90;99.90
16823;DHT22;8528;49.976;11.858;2023-02-28T17:58:51;-0.90;99.90
16823;DHT22;8528;49.976;11.858;2023-02-28T18:01:21;-0.90;99.90
16823;DHT22;8528;49.976;11.858;2023-02-28T18:03:49;-0.90;99.90
16823;DHT22;8528;49.976;11.858;2023-02-28T18:06:20;-1.00;99.90
16823;DHT22;8528;49.976;11.858;2023-02-28T18:08:48;-1.00;99.90